FLI402 BIKF-EKVG
Flight info
| Callsign | FLI402 |
|---|---|
| Flight time | 1h 10m |
| Altitude | 39000 |
| Route | OSKUM3C OSKUM DCT MAGNI |
| Aircraft | A320/M-SDE3FGHIRWY/LB1 |
Departure
| Time | 2026-04-27 11:54 |
|---|---|
| Airport | Keflavik International Airport (BIKF) |
Arrival
| Time | 2026-04-27 13:04 |
|---|---|
| Airport | Vágar Airport (EKVG) |
| Time | Latitude | Longitude | Altitude | Speed | Heading |
|---|---|---|---|---|---|
| 2026-04-27 11:29 | 63.99401 | -22.61829 | 143 ft | 0 kts | 181° |
| 2026-04-27 11:46 | 63.99410 | -22.61829 | 141 ft | 4 kts | 180° |
| 2026-04-27 11:46 | 63.99437 | -22.61829 | 139 ft | 4 kts | 180° |
| 2026-04-27 11:46 | 63.99457 | -22.61831 | 141 ft | 4 kts | 153° |
| 2026-04-27 11:46 | 63.99470 | -22.61869 | 141 ft | 4 kts | 91° |
| 2026-04-27 11:47 | 63.99470 | -22.61874 | 141 ft | 2 kts | 89° |
| 2026-04-27 11:47 | 63.99470 | -22.61870 | 141 ft | 0 kts | 90° |
| 2026-04-27 11:50 | 63.99470 | -22.61832 | 141 ft | 8 kts | 90° |
| 2026-04-27 11:50 | 63.99470 | -22.61635 | 141 ft | 13 kts | 89° |
| 2026-04-27 11:50 | 63.99449 | -22.61429 | 141 ft | 12 kts | 146° |
| 2026-04-27 11:50 | 63.99374 | -22.61428 | 143 ft | 10 kts | 182° |
| 2026-04-27 11:51 | 63.99305 | -22.61433 | 145 ft | 9 kts | 178° |
| 2026-04-27 11:51 | 63.99238 | -22.61433 | 148 ft | 12 kts | 180° |
| 2026-04-27 11:51 | 63.99173 | -22.61100 | 158 ft | 15 kts | 90° |
| 2026-04-27 11:52 | 63.99173 | -22.60893 | 162 ft | 12 kts | 90° |
| 2026-04-27 11:52 | 63.99173 | -22.60762 | 166 ft | 7 kts | 90° |
| 2026-04-27 11:52 | 63.99173 | -22.60653 | 170 ft | 7 kts | 91° |
| 2026-04-27 11:52 | 63.99146 | -22.60546 | 174 ft | 9 kts | 157° |
| 2026-04-27 11:53 | 63.99023 | -22.60538 | 173 ft | 40 kts | 180° |
| 2026-04-27 11:53 | 63.98502 | -22.60539 | 175 ft | 106 kts | 180° |
| 2026-04-27 11:53 | 63.97576 | -22.60536 | 215 ft | 154 kts | 180° |
| 2026-04-27 11:53 | 63.96462 | -22.60605 | 732 ft | 165 kts | 183° |
| 2026-04-27 11:54 | 63.95300 | -22.60693 | 1509 ft | 166 kts | 171° |
| 2026-04-27 11:54 | 63.94265 | -22.59617 | 2372 ft | 166 kts | 144° |
| 2026-04-27 11:54 | 63.93633 | -22.57355 | 3017 ft | 182 kts | 118° |
| 2026-04-27 11:54 | 63.93223 | -22.54420 | 3388 ft | 206 kts | 113° |
| 2026-04-27 11:55 | 63.92809 | -22.51146 | 3867 ft | 227 kts | 113° |
| 2026-04-27 11:55 | 63.92309 | -22.47539 | 4426 ft | 250 kts | 115° |
| 2026-04-27 11:55 | 63.91727 | -22.43710 | 5271 ft | 260 kts | 117° |
| 2026-04-27 11:55 | 63.91087 | -22.39791 | 5802 ft | 269 kts | 120° |
| 2026-04-27 11:56 | 63.90400 | -22.35824 | 5985 ft | 271 kts | 121° |
| 2026-04-27 11:56 | 63.89682 | -22.31858 | 6018 ft | 273 kts | 121° |
| 2026-04-27 11:56 | 63.88940 | -22.27891 | 6644 ft | 279 kts | 123° |
| 2026-04-27 11:56 | 63.88152 | -22.23743 | 7470 ft | 286 kts | 123° |
| 2026-04-27 11:57 | 63.87353 | -22.19567 | 8366 ft | 291 kts | 122° |
| 2026-04-27 11:57 | 63.86541 | -22.15337 | 9293 ft | 296 kts | 122° |
| 2026-04-27 11:57 | 63.85721 | -22.11075 | 10161 ft | 301 kts | 122° |
| 2026-04-27 11:57 | 63.84843 | -22.06560 | 10534 ft | 325 kts | 122° |
| 2026-04-27 11:58 | 63.83959 | -22.01629 | 10939 ft | 349 kts | 115° |
| 2026-04-27 11:58 | 63.83455 | -21.96132 | 11645 ft | 364 kts | 103° |
| 2026-04-27 11:58 | 63.83165 | -21.90390 | 12406 ft | 369 kts | 104° |
| 2026-04-27 11:58 | 63.82849 | -21.84574 | 13173 ft | 373 kts | 104° |
| 2026-04-27 11:59 | 63.82519 | -21.78714 | 13894 ft | 377 kts | 104° |
| 2026-04-27 11:59 | 63.82181 | -21.72797 | 14555 ft | 381 kts | 104° |
| 2026-04-27 11:59 | 63.81840 | -21.66827 | 15212 ft | 385 kts | 104° |
| 2026-04-27 11:59 | 63.81495 | -21.60783 | 15882 ft | 389 kts | 104° |
| 2026-04-27 12:00 | 63.81141 | -21.54687 | 16520 ft | 393 kts | 104° |
| 2026-04-27 12:00 | 63.80780 | -21.48529 | 17166 ft | 397 kts | 104° |
| 2026-04-27 12:00 | 63.80415 | -21.42309 | 17766 ft | 401 kts | 104° |
| 2026-04-27 12:00 | 63.80044 | -21.36002 | 18358 ft | 405 kts | 104° |
| 2026-04-27 12:01 | 63.79670 | -21.29663 | 19016 ft | 409 kts | 104° |
| 2026-04-27 12:01 | 63.79290 | -21.23253 | 19627 ft | 413 kts | 104° |
| 2026-04-27 12:01 | 63.78901 | -21.16785 | 20165 ft | 417 kts | 104° |
| 2026-04-27 12:01 | 63.78510 | -21.10349 | 20703 ft | 420 kts | 104° |
| 2026-04-27 12:02 | 63.78107 | -21.03768 | 21249 ft | 424 kts | 104° |
| 2026-04-27 12:02 | 63.77517 | -20.97245 | 21798 ft | 422 kts | 111° |
| 2026-04-27 12:02 | 63.76762 | -20.90798 | 22308 ft | 427 kts | 112° |
| 2026-04-27 12:02 | 63.75990 | -20.84273 | 22824 ft | 432 kts | 112° |
| 2026-04-27 12:03 | 63.75208 | -20.77677 | 23349 ft | 436 kts | 112° |
| 2026-04-27 12:03 | 63.74418 | -20.71021 | 23800 ft | 440 kts | 112° |
| 2026-04-27 12:03 | 63.73621 | -20.64329 | 24223 ft | 443 kts | 112° |
| 2026-04-27 12:03 | 63.72817 | -20.57582 | 24640 ft | 446 kts | 112° |
| 2026-04-27 12:04 | 63.72005 | -20.50798 | 25069 ft | 449 kts | 112° |
| 2026-04-27 12:04 | 63.71218 | -20.43945 | 25438 ft | 456 kts | 108° |
| 2026-04-27 12:04 | 63.70661 | -20.36850 | 25808 ft | 461 kts | 105° |
| 2026-04-27 12:04 | 63.70123 | -20.29702 | 26184 ft | 464 kts | 106° |
| 2026-04-27 12:05 | 63.69577 | -20.22504 | 26555 ft | 467 kts | 106° |
| 2026-04-27 12:05 | 63.69024 | -20.15290 | 26945 ft | 469 kts | 106° |
| 2026-04-27 12:05 | 63.68458 | -20.08024 | 27344 ft | 472 kts | 106° |
| 2026-04-27 12:05 | 63.67884 | -20.00724 | 27712 ft | 474 kts | 106° |
| 2026-04-27 12:06 | 63.67302 | -19.93387 | 28073 ft | 477 kts | 106° |
| 2026-04-27 12:06 | 63.66716 | -19.86026 | 28435 ft | 479 kts | 106° |
| 2026-04-27 12:06 | 63.66124 | -19.78604 | 28800 ft | 482 kts | 106° |
| 2026-04-27 12:06 | 63.65526 | -19.71160 | 29165 ft | 484 kts | 107° |
| 2026-04-27 12:07 | 63.64920 | -19.63686 | 29466 ft | 487 kts | 105° |
| 2026-04-27 12:07 | 63.64307 | -19.56167 | 29754 ft | 490 kts | 105° |
| 2026-04-27 12:07 | 63.63684 | -19.48615 | 30097 ft | 492 kts | 105° |
| 2026-04-27 12:07 | 63.63055 | -19.41045 | 30374 ft | 493 kts | 105° |
| 2026-04-27 12:08 | 63.62425 | -19.33440 | 30637 ft | 495 kts | 105° |
| 2026-04-27 12:08 | 63.61790 | -19.25822 | 30911 ft | 496 kts | 105° |
| 2026-04-27 12:08 | 63.61147 | -19.18170 | 31176 ft | 498 kts | 106° |
| 2026-04-27 12:08 | 63.60501 | -19.10526 | 31422 ft | 500 kts | 106° |
| 2026-04-27 12:09 | 63.59853 | -19.02956 | 31708 ft | 499 kts | 106° |
| 2026-04-27 12:09 | 63.59190 | -18.95310 | 32027 ft | 498 kts | 106° |
| 2026-04-27 12:09 | 63.58524 | -18.87684 | 32355 ft | 497 kts | 106° |
| 2026-04-27 12:09 | 63.57857 | -18.80076 | 32689 ft | 496 kts | 106° |
| 2026-04-27 12:10 | 63.57189 | -18.72484 | 33001 ft | 495 kts | 105° |
| 2026-04-27 12:10 | 63.56522 | -18.64906 | 33338 ft | 494 kts | 105° |
| 2026-04-27 12:10 | 63.55854 | -18.57337 | 33672 ft | 493 kts | 105° |
| 2026-04-27 12:10 | 63.55184 | -18.49812 | 34002 ft | 492 kts | 106° |
| 2026-04-27 12:11 | 63.54507 | -18.42274 | 34324 ft | 491 kts | 106° |
| 2026-04-27 12:11 | 63.53827 | -18.34772 | 34621 ft | 491 kts | 106° |
| 2026-04-27 12:11 | 63.53145 | -18.27279 | 34936 ft | 490 kts | 106° |
| 2026-04-27 12:11 | 63.52462 | -18.19802 | 35245 ft | 489 kts | 106° |
| 2026-04-27 12:12 | 63.51775 | -18.12346 | 35536 ft | 489 kts | 106° |
| 2026-04-27 12:12 | 63.51081 | -18.04920 | 35829 ft | 488 kts | 106° |
| 2026-04-27 12:12 | 63.50381 | -17.97483 | 36121 ft | 487 kts | 106° |
| 2026-04-27 12:12 | 63.49682 | -17.90063 | 36378 ft | 487 kts | 106° |
| 2026-04-27 12:13 | 63.48983 | -17.82634 | 36550 ft | 488 kts | 105° |
| 2026-04-27 12:13 | 63.48278 | -17.75203 | 36714 ft | 489 kts | 105° |
| 2026-04-27 12:13 | 63.47568 | -17.67762 | 36970 ft | 489 kts | 105° |
| 2026-04-27 12:13 | 63.46854 | -17.60318 | 37238 ft | 489 kts | 105° |
| 2026-04-27 12:14 | 63.46137 | -17.52912 | 37498 ft | 488 kts | 106° |
| 2026-04-27 12:14 | 63.45414 | -17.45499 | 37738 ft | 488 kts | 106° |
| 2026-04-27 12:14 | 63.44688 | -17.38096 | 37988 ft | 487 kts | 106° |
| 2026-04-27 12:14 | 63.43960 | -17.30706 | 38245 ft | 487 kts | 105° |
| 2026-04-27 12:15 | 63.43229 | -17.23318 | 38482 ft | 486 kts | 105° |
| 2026-04-27 12:15 | 63.42496 | -17.15945 | 38679 ft | 486 kts | 106° |
| 2026-04-27 12:15 | 63.41761 | -17.08588 | 38822 ft | 486 kts | 106° |
| 2026-04-27 12:15 | 63.41020 | -17.01237 | 38963 ft | 485 kts | 105° |
| 2026-04-27 12:16 | 63.40274 | -16.93899 | 39072 ft | 485 kts | 105° |
| 2026-04-27 12:16 | 63.38767 | -16.79161 | 39097 ft | 487 kts | 105° |
| 2026-04-27 12:17 | 63.37250 | -16.64472 | 39112 ft | 487 kts | 105° |
| 2026-04-27 12:17 | 63.35716 | -16.49764 | 39109 ft | 487 kts | 105° |
| 2026-04-27 12:18 | 63.34166 | -16.35108 | 39112 ft | 487 kts | 105° |
| 2026-04-27 12:18 | 63.32597 | -16.20443 | 39122 ft | 487 kts | 105° |
| 2026-04-27 12:19 | 63.31013 | -16.05784 | 39131 ft | 487 kts | 106° |
| 2026-04-27 12:19 | 63.29415 | -15.91133 | 39143 ft | 487 kts | 106° |
| 2026-04-27 12:20 | 63.27810 | -15.76593 | 39142 ft | 487 kts | 106° |
| 2026-04-27 12:20 | 63.26177 | -15.61972 | 39145 ft | 487 kts | 106° |
| 2026-04-27 12:21 | 63.24534 | -15.47361 | 39160 ft | 487 kts | 106° |
| 2026-04-27 12:21 | 63.22881 | -15.32777 | 39160 ft | 487 kts | 106° |
| 2026-04-27 12:22 | 63.21212 | -15.18205 | 39140 ft | 487 kts | 105° |
| 2026-04-27 12:22 | 63.19522 | -15.03671 | 39151 ft | 487 kts | 105° |
| 2026-04-27 12:23 | 63.17817 | -14.89120 | 39165 ft | 488 kts | 106° |
| 2026-04-27 12:23 | 63.16091 | -14.74584 | 39169 ft | 488 kts | 106° |
| 2026-04-27 12:24 | 63.14364 | -14.60078 | 39179 ft | 488 kts | 106° |
| 2026-04-27 12:24 | 63.12621 | -14.45592 | 39187 ft | 488 kts | 105° |
| 2026-04-27 12:25 | 63.10872 | -14.31235 | 39188 ft | 488 kts | 106° |
| 2026-04-27 12:25 | 63.09583 | -14.16543 | 39194 ft | 488 kts | 104° |
| 2026-04-27 12:26 | 63.07851 | -14.02065 | 39192 ft | 488 kts | 107° |
| 2026-04-27 12:26 | 63.05957 | -13.87701 | 39180 ft | 488 kts | 107° |
| 2026-04-27 12:27 | 63.04066 | -13.73304 | 39197 ft | 488 kts | 106° |
| 2026-04-27 12:27 | 63.02218 | -13.58906 | 39219 ft | 488 kts | 105° |
| 2026-04-27 12:28 | 63.00371 | -13.44531 | 39221 ft | 488 kts | 105° |
| 2026-04-27 12:28 | 62.98504 | -13.30180 | 39232 ft | 488 kts | 105° |
| 2026-04-27 12:29 | 62.96611 | -13.15825 | 39233 ft | 488 kts | 106° |
| 2026-04-27 12:29 | 62.94704 | -13.01516 | 39233 ft | 488 kts | 106° |
| 2026-04-27 12:30 | 62.92805 | -12.87310 | 39249 ft | 488 kts | 106° |
| 2026-04-27 12:30 | 62.90867 | -12.73031 | 39257 ft | 488 kts | 106° |
| 2026-04-27 12:31 | 62.88925 | -12.58778 | 39253 ft | 488 kts | 105° |
| 2026-04-27 12:31 | 62.86966 | -12.44549 | 39236 ft | 487 kts | 105° |
| 2026-04-27 12:32 | 62.84992 | -12.30354 | 39255 ft | 487 kts | 105° |
| 2026-04-27 12:32 | 62.83005 | -12.16175 | 39268 ft | 487 kts | 105° |
| 2026-04-27 12:33 | 62.81004 | -12.02027 | 39270 ft | 487 kts | 106° |
| 2026-04-27 12:33 | 62.79326 | -11.90270 | 39282 ft | 487 kts | 105° |
| 2026-04-27 12:34 | 62.76969 | -11.73859 | 39277 ft | 487 kts | 106° |
| 2026-04-27 12:34 | 62.74919 | -11.59760 | 39285 ft | 487 kts | 106° |
| 2026-04-27 12:35 | 62.73200 | -11.48031 | 39281 ft | 488 kts | 106° |
| 2026-04-27 12:35 | 62.71138 | -11.33976 | 39282 ft | 488 kts | 106° |
| 2026-04-27 12:36 | 62.69056 | -11.19899 | 39099 ft | 488 kts | 106° |
| 2026-04-27 12:36 | 62.67996 | -11.12810 | 38853 ft | 487 kts | 106° |
| 2026-04-27 12:36 | 62.66956 | -11.05892 | 38536 ft | 485 kts | 106° |
| 2026-04-27 12:36 | 62.65904 | -10.98923 | 37804 ft | 485 kts | 106° |
| 2026-04-27 12:37 | 62.64854 | -10.91981 | 37107 ft | 484 kts | 106° |
| 2026-04-27 12:37 | 62.63797 | -10.84996 | 36317 ft | 486 kts | 106° |
| 2026-04-27 12:37 | 62.62734 | -10.77989 | 35433 ft | 491 kts | 107° |
| 2026-04-27 12:37 | 62.61654 | -10.70885 | 34475 ft | 497 kts | 107° |
| 2026-04-27 12:38 | 62.60561 | -10.63745 | 33732 ft | 496 kts | 107° |
| 2026-04-27 12:38 | 62.59470 | -10.56664 | 33111 ft | 492 kts | 107° |
| 2026-04-27 12:38 | 62.58381 | -10.49651 | 32448 ft | 492 kts | 108° |
| 2026-04-27 12:38 | 62.57275 | -10.42580 | 31779 ft | 495 kts | 108° |
| 2026-04-27 12:39 | 62.56166 | -10.35508 | 31146 ft | 496 kts | 108° |
| 2026-04-27 12:39 | 62.55053 | -10.28431 | 30471 ft | 496 kts | 107° |
| 2026-04-27 12:39 | 62.53942 | -10.21373 | 29762 ft | 496 kts | 107° |
| 2026-04-27 12:39 | 62.52826 | -10.14299 | 29127 ft | 496 kts | 108° |
| 2026-04-27 12:40 | 62.51707 | -10.07233 | 28473 ft | 496 kts | 108° |
| 2026-04-27 12:40 | 62.50583 | -10.00165 | 27837 ft | 496 kts | 108° |
| 2026-04-27 12:40 | 62.49456 | -9.93101 | 27220 ft | 497 kts | 108° |
| 2026-04-27 12:40 | 62.48326 | -9.86041 | 26597 ft | 497 kts | 108° |
| 2026-04-27 12:41 | 62.47205 | -9.79084 | 26026 ft | 493 kts | 108° |
| 2026-04-27 12:41 | 62.46088 | -9.72187 | 25482 ft | 482 kts | 108° |
| 2026-04-27 12:41 | 62.44983 | -9.65388 | 24844 ft | 476 kts | 108° |
| 2026-04-27 12:41 | 62.43892 | -9.58696 | 24284 ft | 471 kts | 108° |
| 2026-04-27 12:42 | 62.42811 | -9.52065 | 23686 ft | 466 kts | 108° |
| 2026-04-27 12:42 | 62.41738 | -9.45512 | 23086 ft | 461 kts | 108° |
| 2026-04-27 12:42 | 62.40673 | -9.39020 | 22519 ft | 457 kts | 108° |
| 2026-04-27 12:42 | 62.39611 | -9.32593 | 21936 ft | 453 kts | 109° |
| 2026-04-27 12:43 | 62.38549 | -9.26211 | 21358 ft | 449 kts | 109° |
| 2026-04-27 12:43 | 62.37498 | -9.19910 | 20768 ft | 445 kts | 109° |
| 2026-04-27 12:43 | 62.36452 | -9.13657 | 20184 ft | 442 kts | 109° |
| 2026-04-27 12:43 | 62.35413 | -9.07459 | 19609 ft | 438 kts | 109° |
| 2026-04-27 12:44 | 62.34380 | -9.01304 | 19036 ft | 435 kts | 109° |
| 2026-04-27 12:44 | 62.33356 | -8.95200 | 18450 ft | 432 kts | 110° |
| 2026-04-27 12:44 | 62.32339 | -8.89160 | 17873 ft | 428 kts | 110° |
| 2026-04-27 12:44 | 62.31328 | -8.83194 | 17322 ft | 424 kts | 110° |
| 2026-04-27 12:45 | 62.30321 | -8.77268 | 16786 ft | 420 kts | 110° |
| 2026-04-27 12:45 | 62.29320 | -8.71410 | 16248 ft | 415 kts | 110° |
| 2026-04-27 12:45 | 62.28326 | -8.65624 | 15727 ft | 411 kts | 110° |
| 2026-04-27 12:45 | 62.27351 | -8.59981 | 15204 ft | 406 kts | 110° |
| 2026-04-27 12:46 | 62.26361 | -8.54263 | 14679 ft | 402 kts | 110° |
| 2026-04-27 12:46 | 62.25392 | -8.48660 | 14155 ft | 398 kts | 110° |
| 2026-04-27 12:46 | 62.24432 | -8.43120 | 13607 ft | 394 kts | 110° |
| 2026-04-27 12:46 | 62.23479 | -8.37642 | 13086 ft | 390 kts | 110° |
| 2026-04-27 12:47 | 62.22536 | -8.32243 | 12570 ft | 386 kts | 110° |
| 2026-04-27 12:47 | 62.21597 | -8.26882 | 12055 ft | 382 kts | 111° |
| 2026-04-27 12:47 | 62.20668 | -8.21584 | 11535 ft | 378 kts | 111° |
| 2026-04-27 12:47 | 62.19759 | -8.16395 | 11020 ft | 375 kts | 111° |
| 2026-04-27 12:48 | 62.18847 | -8.11184 | 10533 ft | 371 kts | 111° |
| 2026-04-27 12:48 | 62.17939 | -8.06039 | 10430 ft | 369 kts | 111° |
| 2026-04-27 12:48 | 62.17035 | -8.00959 | 10327 ft | 357 kts | 111° |
| 2026-04-27 12:48 | 62.16188 | -7.96215 | 10187 ft | 328 kts | 112° |
| 2026-04-27 12:49 | 62.15405 | -7.91839 | 9977 ft | 305 kts | 112° |
| 2026-04-27 12:49 | 62.14657 | -7.87664 | 9412 ft | 296 kts | 112° |
| 2026-04-27 12:49 | 62.13926 | -7.83579 | 8747 ft | 292 kts | 112° |
| 2026-04-27 12:49 | 62.13141 | -7.79612 | 8065 ft | 288 kts | 121° |
| 2026-04-27 12:50 | 62.12074 | -7.76022 | 7385 ft | 285 kts | 125° |
| 2026-04-27 12:50 | 62.10998 | -7.72512 | 6712 ft | 282 kts | 125° |
| 2026-04-27 12:50 | 62.09919 | -7.68993 | 5903 ft | 283 kts | 125° |
| 2026-04-27 12:50 | 62.08854 | -7.65506 | 5299 ft | 276 kts | 125° |
| 2026-04-27 12:51 | 62.07820 | -7.62115 | 4764 ft | 266 kts | 126° |
| 2026-04-27 12:51 | 62.06852 | -7.58942 | 4600 ft | 244 kts | 126° |
| 2026-04-27 12:51 | 62.05963 | -7.56039 | 4490 ft | 225 kts | 126° |
| 2026-04-27 12:51 | 62.05112 | -7.53284 | 4392 ft | 218 kts | 126° |
| 2026-04-27 12:52 | 62.04295 | -7.50645 | 4300 ft | 209 kts | 127° |
| 2026-04-27 12:52 | 62.03513 | -7.48122 | 4224 ft | 199 kts | 127° |
| 2026-04-27 12:52 | 62.02778 | -7.45740 | 4153 ft | 186 kts | 127° |
| 2026-04-27 12:52 | 62.02082 | -7.43495 | 4048 ft | 177 kts | 127° |
| 2026-04-27 12:53 | 62.00720 | -7.39113 | 3642 ft | 180 kts | 127° |
| 2026-04-27 12:53 | 62.00024 | -7.36880 | 3322 ft | 181 kts | 127° |
| 2026-04-27 12:53 | 61.99331 | -7.34632 | 3027 ft | 182 kts | 123° |
| 2026-04-27 12:54 | 61.98913 | -7.32105 | 2733 ft | 186 kts | 99° |
| 2026-04-27 12:54 | 61.98981 | -7.29368 | 2435 ft | 187 kts | 76° |
| 2026-04-27 12:54 | 61.99528 | -7.26880 | 2130 ft | 186 kts | 53° |
| 2026-04-27 12:54 | 62.00463 | -7.25051 | 1837 ft | 180 kts | 29° |
| 2026-04-27 12:55 | 62.01556 | -7.23813 | 1549 ft | 176 kts | 26° |
| 2026-04-27 12:55 | 62.02591 | -7.22644 | 1293 ft | 161 kts | 26° |
| 2026-04-27 12:55 | 62.03611 | -7.21950 | 1008 ft | 149 kts | 1° |
| 2026-04-27 12:55 | 62.04593 | -7.22386 | 731 ft | 143 kts | 338° |
| 2026-04-27 12:56 | 62.05380 | -7.23564 | 579 ft | 139 kts | 298° |
| 2026-04-27 12:56 | 62.05799 | -7.25424 | 359 ft | 140 kts | 294° |
| 2026-04-27 12:56 | 62.06248 | -7.27249 | 401 ft | 141 kts | 296° |
| 2026-04-27 12:56 | 62.06760 | -7.29238 | 1086 ft | 165 kts | 295° |
| 2026-04-27 12:57 | 62.07305 | -7.31389 | 2143 ft | 163 kts | 294° |
| 2026-04-27 12:57 | 62.07866 | -7.33437 | 3007 ft | 157 kts | 297° |
| 2026-04-27 12:57 | 62.08325 | -7.35671 | 3411 ft | 175 kts | 286° |
| 2026-04-27 12:57 | 62.08710 | -7.38303 | 3812 ft | 195 kts | 284° |
| 2026-04-27 12:58 | 62.09103 | -7.41169 | 4000 ft | 201 kts | 284° |
| 2026-04-27 12:58 | 62.09492 | -7.44011 | 4010 ft | 199 kts | 284° |
| 2026-04-27 12:58 | 62.09768 | -7.46874 | 4007 ft | 192 kts | 268° |
| 2026-04-27 12:58 | 62.09449 | -7.49558 | 4011 ft | 187 kts | 240° |
| 2026-04-27 12:59 | 62.08581 | -7.51494 | 3993 ft | 180 kts | 212° |
| 2026-04-27 12:59 | 62.07394 | -7.52281 | 3997 ft | 182 kts | 185° |
| 2026-04-27 12:59 | 62.06166 | -7.51748 | 3999 ft | 188 kts | 156° |
| 2026-04-27 12:59 | 62.05149 | -7.49967 | 4013 ft | 192 kts | 136° |
| 2026-04-27 13:00 | 62.04233 | -7.47892 | 4005 ft | 189 kts | 137° |
| 2026-04-27 13:00 | 62.03368 | -7.45937 | 4004 ft | 176 kts | 137° |
| 2026-04-27 13:00 | 62.02536 | -7.44070 | 4006 ft | 173 kts | 138° |
| 2026-04-27 13:00 | 62.01708 | -7.42205 | 4003 ft | 174 kts | 134° |
| 2026-04-27 13:01 | 62.01010 | -7.40040 | 3791 ft | 182 kts | 127° |
| 2026-04-27 13:01 | 62.00295 | -7.37748 | 3454 ft | 189 kts | 126° |
| 2026-04-27 13:01 | 61.99567 | -7.35405 | 3149 ft | 190 kts | 126° |
| 2026-04-27 13:01 | 61.98986 | -7.32886 | 2833 ft | 192 kts | 107° |
| 2026-04-27 13:02 | 61.98912 | -7.30051 | 2510 ft | 194 kts | 82° |
| 2026-04-27 13:02 | 61.99361 | -7.27393 | 2200 ft | 189 kts | 58° |
| 2026-04-27 13:02 | 62.00234 | -7.25383 | 1900 ft | 182 kts | 34° |
| 2026-04-27 13:02 | 62.01282 | -7.24140 | 1634 ft | 165 kts | 25° |
| 2026-04-27 13:03 | 62.02259 | -7.23041 | 1371 ft | 153 kts | 25° |
| 2026-04-27 13:03 | 62.03190 | -7.22096 | 1116 ft | 145 kts | 13° |
| 2026-04-27 13:03 | 62.04163 | -7.22121 | 960 ft | 141 kts | 341° |
| 2026-04-27 13:03 | 62.05020 | -7.23124 | 737 ft | 141 kts | 319° |
| 2026-04-27 13:04 | 62.05623 | -7.24754 | 421 ft | 140 kts | 298° |
| 2026-04-27 13:04 | 62.06077 | -7.26583 | 262 ft | 137 kts | 298° |
| 2026-04-27 13:04 | 62.06427 | -7.27990 | 283 ft | 52 kts | 298° |
| 2026-04-27 13:04 | 62.06499 | -7.28193 | 281 ft | 3 kts | 41° |
| 2026-04-27 13:05 | 62.06512 | -7.28152 | 280 ft | 3 kts | 52° |
| 2026-04-27 13:05 | 62.06554 | -7.28105 | 278 ft | 0 kts | 17° |
| 2026-04-27 13:05 | 62.06554 | -7.28104 | 278 ft | 0 kts | 17° |
| 2026-04-27 13:06 | 62.06568 | -7.28096 | 278 ft | 3 kts | 13° |
| 2026-04-27 13:06 | 62.06588 | -7.28089 | 280 ft | 3 kts | 8° |
| 2026-04-27 13:06 | 62.06605 | -7.28086 | 278 ft | 3 kts | 2° |
| 2026-04-27 13:06 | 62.06634 | -7.28093 | 279 ft | 6 kts | 351° |
| 2026-04-27 13:07 | 62.06651 | -7.28015 | 279 ft | 9 kts | 103° |
| 2026-04-27 13:07 | 62.06669 | -7.27966 | 279 ft | 5 kts | 28° |
| 2026-04-27 13:07 | 62.06686 | -7.27946 | 279 ft | 1 kts | 28° |
| 2026-04-27 13:07 | 62.06687 | -7.27944 | 279 ft | 0 kts | 28° |